• Join FlightAware (Why Join?)
  • Login
  • US Flag 
04:39PM EST


 

Airport Tracker/Info


-or-


 

Live Flight TrackerFlight Track Log ✈ TAM3224 ✈ 23-Jul-2013 ✈ SBSP / CGH - SBCF / CNF

Flight Track Log - Related Links

Times and Time Zones

All times are in EDT time to prevent confusion due to time zone crossing. See the TAM3224 flight status page for this flight to view local times or setup timezone preferences in your user account.

Time Position Orientation Groundspeed Altitude Reporting Facility
EDT Latitude Longitude Course Direction KTS MPH feet Rate Location/Type
09:18PM -20.8930 -44.7973 33° Northeast  Level Estimated
09:19PM -20.8189 -44.7480 32° Northeast  Level Estimated
09:20PM -20.7447 -44.6988 32° Northeast  Level Estimated
09:21PM -20.6705 -44.6497 32° Northeast  Level Estimated
09:22PM -20.5963 -44.6006 32° Northeast  Level Estimated
09:23PM -20.5221 -44.5516 32° Northeast  Level Estimated
09:24PM -20.4478 -44.5026 32° Northeast  Level Estimated
09:25PM -20.3736 -44.4536 32° Northeast  Level Estimated
09:26PM -20.2993 -44.4047 32° Northeast  Level Estimated
09:27PM -20.2250 -44.3558 32° Northeast  Level Estimated
09:28PM -20.1507 -44.3070 32° Northeast  Level Estimated
09:29PM -20.0764 -44.2583 32° Northeast  Level Estimated
09:30PM -20.0021 -44.2095 32° Northeast  Level Estimated
09:31PM -19.9278 -44.1609 32° Northeast  Level Estimated
09:32PM -19.8535 -44.1122 32° Northeast  Level Estimated
09:33PM -19.7791 -44.0637 32° Northeast  Level Estimated
09:34PM -19.7047 -44.0151 32° Northeast  Level Estimated
09:35PM -19.6338 -43.9689 32° Northeast  Level Estimated
09:36PM -19.6338 -43.9689 90° East  Level Estimated
09:37PM -19.6338 -43.9689 90° East  Level Estimated
09:38PM -19.6338 -43.9689 90° East  Level Estimated
09:39PM -19.6338 -43.9689 90° East  Level Estimated
09:40PM -19.6338 -43.9689 90° East  Level Estimated
09:41PM -19.6338 -43.9689 90° East  Level Estimated
09:42PM -19.6338 -43.9689 90° East  Level Estimated
09:43PM -19.6338 -43.9689 90° East  Level Estimated
09:44PM -19.6338 -43.9689 90° East  Level Estimated
09:45PM -19.6338 -43.9689 90° East  Level Estimated
09:46PM -19.6338 -43.9689 90° East  Level Estimated
09:47PM -19.6338 -43.9689 90° East  Level Estimated
09:48PM -19.6338 -43.9689 90° East  Level Estimated
09:49PM -19.6338 -43.9689 90° East  Level Estimated
09:50PM -19.6338 -43.9689 90° East  Level Estimated
09:51PM -19.6338 -43.9689 90° East  Level Estimated